createdAt,value
2018-12-01T00:00:38.273Z,91.00
2018-12-01T00:03:07.712Z,132.87
2018-12-01T00:05:37.088Z,133.00
2018-12-01T00:08:06.712Z,140.63
2018-12-01T00:10:36.212Z,305.60
2018-12-01T00:13:05.710Z,118.60
2018-12-01T00:15:35.130Z,217.00
2018-12-01T00:18:04.567Z,53.60
2018-12-01T00:20:36.832Z,106.07
2018-12-01T00:23:07.692Z,112.95
2018-12-01T00:25:37.160Z,120.10
2018-12-01T00:28:06.705Z,83.73
2018-12-01T00:30:36.164Z,55.70
2018-12-01T00:33:05.585Z,217.97
2018-12-01T00:35:34.993Z,84.93
2018-12-01T00:38:04.384Z,69.13
2018-12-01T00:40:33.799Z,96.37
2018-12-01T00:43:03.208Z,154.03
2018-12-01T00:45:32.633Z,47.40
2018-12-01T00:48:02.051Z,67.20
2018-12-01T00:50:31.502Z,192.37
2018-12-01T00:53:00.885Z,65.43
2018-12-01T00:55:30.269Z,76.13
2018-12-01T00:57:59.661Z,73.37
2018-12-01T01:00:29.289Z,47.00
2018-12-01T01:02:59.752Z,42.60
2018-12-01T01:05:31.939Z,180.80
2018-12-01T01:08:01.936Z,184.20
2018-12-01T01:10:34.705Z,145.53
2018-12-01T01:13:03.400Z,78.97
2018-12-01T01:15:32.776Z,46.37
2018-12-01T01:18:02.169Z,78.87
2018-12-01T01:20:31.566Z,60.00
2018-12-01T01:23:00.981Z,43.37
2018-12-01T01:25:30.368Z,69.83
2018-12-01T01:27:59.748Z,212.33
2018-12-01T01:30:29.133Z,39.77
2018-12-01T01:33:15.624Z,41.48
2018-12-01T01:35:45.016Z,35.93
2018-12-01T01:38:14.404Z,56.00
2018-12-01T01:40:43.815Z,55.23
2018-12-01T01:43:13.206Z,36.60
2018-12-01T01:45:42.596Z,42.70
2018-12-01T01:48:12.018Z,37.77
2018-12-01T01:50:41.421Z,111.10
2018-12-01T01:53:10.861Z,37.40
2018-12-01T01:55:40.248Z,96.27
2018-12-01T01:58:09.665Z,38.77
2018-12-01T02:00:39.112Z,36.87
2018-12-01T02:03:08.532Z,81.13
2018-12-01T02:05:37.925Z,102.23
2018-12-01T02:08:07.361Z,83.57
2018-12-01T02:10:36.724Z,38.57
2018-12-01T02:13:06.177Z,35.83
2018-12-01T02:15:35.561Z,89.97
2018-12-01T02:18:05.254Z,67.43
2018-12-01T02:20:34.664Z,44.93
2018-12-01T02:23:04.042Z,61.30
2018-12-01T02:25:33.453Z,39.87
2018-12-01T02:28:02.833Z,72.53
2018-12-01T02:30:32.285Z,76.77
2018-12-01T02:33:01.740Z,37.73
2018-12-01T02:35:31.437Z,84.73
2018-12-01T02:38:00.821Z,50.10
2018-12-01T02:40:30.233Z,44.07
2018-12-01T02:42:59.932Z,75.20
2018-12-01T02:45:46.479Z,35.67
2018-12-01T02:48:15.876Z,89.03
2018-12-01T02:50:45.242Z,77.93
2018-12-01T02:53:14.680Z,41.63
2018-12-01T02:55:44.089Z,40.10
2018-12-01T02:58:13.491Z,57.63
2018-12-01T03:00:42.918Z,55.17
2018-12-01T03:03:12.317Z,55.63
2018-12-01T03:05:41.693Z,35.30
2018-12-01T03:08:11.094Z,48.13
2018-12-01T03:10:40.512Z,43.73
2018-12-01T03:13:10.001Z,38.80
2018-12-01T03:15:39.392Z,34.30
2018-12-01T03:18:13.501Z,40.53
2018-12-01T03:20:38.181Z,25.63
2018-12-01T03:23:07.590Z,36.47
2018-12-01T03:25:36.975Z,34.03
2018-12-01T03:28:06.790Z,48.10
2018-12-01T03:30:36.181Z,26.33
2018-12-01T03:33:05.584Z,43.93
2018-12-01T03:35:35.018Z,44.47
2018-12-01T03:38:04.418Z,28.47
2018-12-01T03:40:38.956Z,32.43
2018-12-01T03:43:08.397Z,52.43
2018-12-01T03:45:37.801Z,36.43
2018-12-01T03:48:07.646Z,64.90
2018-12-01T03:50:37.025Z,45.33
2018-12-01T03:53:07.154Z,34.60
2018-12-01T03:55:36.524Z,31.50
2018-12-01T03:58:05.961Z,35.43
2018-12-01T04:00:36.207Z,50.13
2018-12-01T04:03:08.517Z,41.37
2018-12-01T04:05:37.981Z,33.77
2018-12-01T04:08:07.396Z,39.70
2018-12-01T04:10:36.785Z,36.77
2018-12-01T04:13:06.605Z,26.53
2018-12-01T04:15:36.020Z,41.27
2018-12-01T04:18:05.545Z,83.92
2018-12-01T04:20:34.973Z,42.83
2018-12-01T04:23:04.364Z,50.95
2018-12-01T04:25:33.737Z,53.37
2018-12-01T04:28:03.105Z,37.60
2018-12-01T04:30:32.525Z,35.30
2018-12-01T04:33:01.910Z,39.20
2018-12-01T04:35:31.300Z,38.33
2018-12-01T04:38:00.684Z,66.50
2018-12-01T04:40:30.068Z,59.83
2018-12-01T04:42:59.501Z,49.13
2018-12-01T04:45:28.893Z,38.60
2018-12-01T04:47:58.309Z,40.67
2018-12-01T04:50:28.041Z,40.43
2018-12-01T04:52:57.432Z,47.17
2018-12-01T04:55:26.840Z,62.80
2018-12-01T04:57:56.256Z,79.70
2018-12-01T05:00:25.698Z,48.83
2018-12-01T05:02:55.108Z,53.23
2018-12-01T05:05:24.504Z,42.60
2018-12-01T05:07:53.888Z,50.20
2018-12-01T05:10:23.812Z,75.67
2018-12-01T05:12:53.197Z,67.80
2018-12-01T05:15:22.565Z,63.13
2018-12-01T05:17:52.045Z,53.60
2018-12-01T05:20:24.440Z,62.63
2018-12-01T05:22:54.561Z,78.43
2018-12-01T05:25:23.965Z,64.37
2018-12-01T05:27:53.392Z,47.13
2018-12-01T05:30:22.799Z,39.47
2018-12-01T05:32:52.190Z,44.43
2018-12-01T05:35:24.353Z,50.87
2018-12-01T05:37:53.776Z,42.47
2018-12-01T05:40:23.425Z,44.67
2018-12-01T05:42:52.849Z,32.53
2018-12-01T05:45:23.202Z,74.10
2018-12-01T05:47:53.223Z,36.35
2018-12-01T05:50:24.162Z,40.03
2018-12-01T05:52:54.915Z,35.83
2018-12-01T05:55:24.364Z,33.00
2018-12-01T05:57:53.845Z,35.67
2018-12-01T06:00:23.309Z,40.03
2018-12-01T06:02:52.714Z,39.20
2018-12-01T06:05:22.078Z,47.87
2018-12-01T06:07:51.492Z,40.97
2018-12-01T06:10:22.941Z,36.67
2018-12-01T06:12:53.816Z,38.37
2018-12-01T06:15:23.429Z,36.73
2018-12-01T06:17:52.832Z,33.40
2018-12-01T06:20:23.828Z,36.03
2018-12-01T06:22:53.197Z,34.70
2018-12-01T06:25:24.293Z,35.60
2018-12-01T06:27:53.696Z,41.63
2018-12-01T06:30:23.091Z,46.67
2018-12-01T06:32:53.321Z,37.87
2018-12-01T06:35:22.810Z,33.83
2018-12-01T06:37:52.250Z,31.47
2018-12-01T06:40:22.372Z,34.60
2018-12-01T06:42:51.784Z,38.07
2018-12-01T06:45:21.181Z,27.10
2018-12-01T06:47:50.584Z,30.47
2018-12-01T06:50:23.444Z,28.83
2018-12-01T06:52:53.924Z,44.88
2018-12-01T06:55:24.217Z,37.40
2018-12-01T06:57:53.622Z,42.57
2018-12-01T07:00:25.307Z,33.57
2018-12-01T07:02:56.480Z,26.70
2018-12-01T07:05:25.868Z,30.90
2018-12-01T07:07:55.237Z,31.53
2018-12-01T07:10:24.850Z,37.87
2018-12-01T07:13:00.433Z,48.67
2018-12-01T07:15:39.045Z,35.03
2018-12-01T07:18:25.326Z,35.50
2018-12-01T07:20:54.731Z,34.73
2018-12-01T07:23:24.175Z,40.10
2018-12-01T07:25:53.653Z,39.50
2018-12-01T07:28:23.062Z,43.40
2018-12-01T07:30:52.484Z,40.40
2018-12-01T07:33:21.914Z,37.93
2018-12-01T07:35:51.312Z,34.07
2018-12-01T07:38:20.709Z,36.30
2018-12-01T07:40:50.089Z,32.83
2018-12-01T07:43:19.481Z,46.57
2018-12-01T07:45:48.857Z,36.00
2018-12-01T07:48:18.251Z,34.20
2018-12-01T07:50:47.644Z,31.20
2018-12-01T07:53:17.543Z,31.97
2018-12-01T07:55:46.464Z,37.10
2018-12-01T07:58:15.980Z,36.73
2018-12-01T08:00:45.383Z,34.67
2018-12-01T08:03:14.752Z,37.73
2018-12-01T08:05:44.162Z,34.87
2018-12-01T08:08:13.549Z,31.43
2018-12-01T08:10:42.944Z,26.47
2018-12-01T08:13:12.349Z,27.93
2018-12-01T08:15:41.753Z,35.37
2018-12-01T08:18:11.142Z,38.60
2018-12-01T08:20:40.533Z,35.33
2018-12-01T08:23:09.940Z,28.57
2018-12-01T08:25:39.333Z,27.13
2018-12-01T08:28:10.772Z,29.93
2018-12-01T08:30:41.161Z,33.60
2018-12-01T08:33:10.550Z,27.33
2018-12-01T08:35:39.957Z,43.53
2018-12-01T08:38:09.339Z,38.17
2018-12-01T08:40:38.737Z,35.30
2018-12-01T08:43:08.121Z,26.30
2018-12-01T08:45:37.522Z,37.50
2018-12-01T08:48:08.237Z,31.73
2018-12-01T08:50:38.448Z,25.20
2018-12-01T08:53:08.021Z,23.80
2018-12-01T08:55:37.424Z,27.80
2018-12-01T08:58:06.893Z,29.50
2018-12-01T09:00:41.240Z,23.17
2018-12-01T09:03:25.213Z,23.20
2018-12-01T09:05:54.943Z,21.77
2018-12-01T09:08:24.309Z,29.13
2018-12-01T09:10:53.789Z,25.57
2018-12-01T09:13:23.165Z,25.90
2018-12-01T09:15:52.567Z,22.43
2018-12-01T09:18:21.973Z,24.80
2018-12-01T09:20:51.461Z,21.90
2018-12-01T09:23:20.898Z,23.70
2018-12-01T09:25:50.297Z,22.10
2018-12-01T09:28:19.699Z,24.98
2018-12-01T09:30:49.120Z,23.20
2018-12-01T09:33:18.500Z,20.57
2018-12-01T09:35:47.897Z,16.87
2018-12-01T09:38:17.313Z,22.93
2018-12-01T09:40:46.705Z,29.13
2018-12-01T09:43:16.075Z,23.13
2018-12-01T09:45:45.460Z,19.00
2018-12-01T09:48:14.869Z,21.45
2018-12-01T09:50:44.250Z,16.97
2018-12-01T09:53:13.663Z,20.20
2018-12-01T09:55:43.062Z,26.13
2018-12-01T09:58:12.443Z,19.63
2018-12-01T10:00:41.851Z,14.63
2018-12-01T10:03:11.230Z,25.03
2018-12-01T10:05:40.673Z,13.97
2018-12-01T10:08:10.089Z,22.30
2018-12-01T10:10:39.580Z,20.33
2018-12-01T10:13:09.003Z,17.70
2018-12-01T10:15:38.577Z,19.33
2018-12-01T10:18:09.605Z,21.53
2018-12-01T10:20:38.987Z,12.47
2018-12-01T10:23:12.217Z,20.57
2018-12-01T10:25:41.616Z,14.37
2018-12-01T10:28:11.791Z,23.50
2018-12-01T10:30:41.237Z,14.10
2018-12-01T10:33:10.658Z,23.13
2018-12-01T10:35:40.045Z,18.23
2018-12-01T10:38:15.140Z,21.10
2018-12-01T10:40:44.532Z,18.77
2018-12-01T10:43:13.929Z,19.47
2018-12-01T10:45:43.362Z,25.00
2018-12-01T10:48:12.780Z,18.67
2018-12-01T10:50:42.168Z,17.73
2018-12-01T10:53:11.609Z,19.23
2018-12-01T10:55:41.028Z,18.77
2018-12-01T10:58:27.277Z,17.57
2018-12-01T11:01:01.888Z,12.00
2018-12-01T11:03:36.736Z,17.60
2018-12-01T11:06:13.866Z,12.73
2018-12-01T11:08:43.289Z,14.97
2018-12-01T11:11:12.703Z,13.07
2018-12-01T11:13:42.161Z,17.40
2018-12-01T11:16:11.529Z,16.50
2018-12-01T11:18:40.963Z,13.47
2018-12-01T11:21:10.344Z,16.50
2018-12-01T11:23:39.723Z,16.30
2018-12-01T11:26:09.165Z,19.43
2018-12-01T11:28:38.889Z,17.47
2018-12-01T11:31:08.286Z,15.23
2018-12-01T11:33:37.781Z,18.60
2018-12-01T11:36:07.192Z,17.60
2018-12-01T11:38:36.606Z,15.50
2018-12-01T11:41:06.728Z,11.80
2018-12-01T11:43:36.154Z,13.03
2018-12-01T11:46:05.597Z,17.97
2018-12-01T11:48:35.017Z,19.00
2018-12-01T11:51:04.439Z,17.83
2018-12-01T11:53:33.913Z,14.30
2018-12-01T11:56:03.325Z,20.43
2018-12-01T11:58:32.707Z,16.33
2018-12-01T12:01:02.111Z,17.87
2018-12-01T12:03:31.509Z,15.40
2018-12-01T12:06:00.913Z,19.17
2018-12-01T12:08:30.349Z,11.30
2018-12-01T12:10:59.729Z,13.67
2018-12-01T12:13:29.298Z,13.63
2018-12-01T12:15:58.670Z,10.53
2018-12-01T12:18:28.905Z,11.10
2018-12-01T12:20:57.673Z,18.90
2018-12-01T12:23:27.057Z,14.40
2018-12-01T12:25:56.422Z,16.20
2018-12-01T12:28:25.820Z,13.23
2018-12-01T12:30:55.190Z,10.27
2018-12-01T12:33:24.604Z,10.30
2018-12-01T12:35:53.999Z,12.80
2018-12-01T12:38:23.377Z,14.38
2018-12-01T12:40:52.768Z,13.80
2018-12-01T12:43:22.185Z,11.80
2018-12-01T12:45:51.564Z,17.87
2018-12-01T12:48:20.956Z,11.10
2018-12-01T12:50:53.148Z,14.00
2018-12-01T12:53:19.739Z,16.03
2018-12-01T12:55:49.124Z,15.23
2018-12-01T12:58:18.492Z,16.17
2018-12-01T13:00:47.889Z,11.03
2018-12-01T13:03:17.324Z,11.83
2018-12-01T13:05:48.527Z,14.70
2018-12-01T13:08:20.013Z,10.07
2018-12-01T13:10:49.467Z,12.53
2018-12-01T13:13:18.829Z,11.87
2018-12-01T13:15:48.225Z,12.80
2018-12-01T13:18:17.636Z,15.77
2018-12-01T13:20:48.065Z,14.43
2018-12-01T13:23:17.459Z,13.10
2018-12-01T13:25:46.842Z,14.87
2018-12-01T13:28:24.451Z,13.17
2018-12-01T13:30:59.717Z,17.13
2018-12-01T13:33:29.300Z,10.27
2018-12-01T13:35:59.071Z,10.23
2018-12-01T13:38:28.671Z,13.47
2018-12-01T13:40:58.049Z,16.07
2018-12-01T13:43:27.449Z,11.90
2018-12-01T13:45:56.867Z,12.30
2018-12-01T13:48:26.277Z,12.10
2018-12-01T13:50:56.528Z,13.30
2018-12-01T13:53:25.943Z,13.80
2018-12-01T13:55:55.653Z,18.83
2018-12-01T13:58:25.056Z,15.40
2018-12-01T14:00:54.421Z,15.97
2018-12-01T14:03:23.904Z,10.77
2018-12-01T14:05:53.285Z,13.30
2018-12-01T14:08:22.693Z,14.73
2018-12-01T14:10:52.704Z,10.33
2018-12-01T14:13:22.157Z,12.37
2018-12-01T14:15:51.549Z,11.37
2018-12-01T14:18:21.293Z,15.97
2018-12-01T14:20:51.013Z,15.93
2018-12-01T14:23:21.886Z,16.27
2018-12-01T14:25:50.424Z,11.77
2018-12-01T14:28:19.798Z,10.70
2018-12-01T14:30:49.194Z,11.00
2018-12-01T14:33:18.593Z,12.63
2018-12-01T14:35:47.988Z,18.77
2018-12-01T14:38:19.333Z,13.07
2018-12-01T14:40:50.877Z,15.47
2018-12-01T14:43:20.301Z,15.43
2018-12-01T14:45:50.634Z,10.97
2018-12-01T14:48:20.031Z,20.57
2018-12-01T14:50:49.412Z,14.17
2018-12-01T14:53:19.660Z,8.90
2018-12-01T14:55:49.033Z,12.50
2018-12-01T14:58:18.413Z,10.27
2018-12-01T15:00:47.804Z,12.43
2018-12-01T15:03:17.200Z,8.97
2018-12-01T15:05:46.600Z,10.43
2018-12-01T15:08:16.323Z,10.33
2018-12-01T15:10:45.965Z,12.30
2018-12-01T15:13:15.659Z,10.40
2018-12-01T15:15:45.444Z,14.20
2018-12-01T15:18:15.301Z,11.00
2018-12-01T15:20:45.130Z,31.70
2018-12-01T15:23:14.730Z,14.40
2018-12-01T15:25:44.416Z,8.43
2018-12-01T15:28:14.167Z,10.00
2018-12-01T15:30:43.817Z,10.70
2018-12-01T15:33:15.400Z,14.30
2018-12-01T15:35:46.367Z,14.47
2018-12-01T15:38:16.385Z,16.10
2018-12-01T15:40:50.255Z,12.93
2018-12-01T15:43:20.045Z,13.43
2018-12-01T15:45:49.672Z,10.33
2018-12-01T15:48:19.364Z,11.87
2018-12-01T15:50:49.088Z,11.07
2018-12-01T15:53:18.780Z,9.20
2018-12-01T15:55:48.547Z,11.00
2018-12-01T15:58:17.925Z,11.00
2018-12-01T16:00:47.399Z,9.97
2018-12-01T16:03:16.849Z,10.30
2018-12-01T16:05:46.268Z,11.20
2018-12-01T16:08:15.717Z,12.50
2018-12-01T16:10:45.088Z,14.50
2018-12-01T16:13:17.172Z,16.67
2018-12-01T16:15:58.760Z,18.10
2018-12-01T16:18:28.253Z,16.43
2018-12-01T16:20:57.709Z,14.13
2018-12-01T16:23:27.133Z,13.47
2018-12-01T16:25:56.554Z,12.27
2018-12-01T16:28:25.956Z,15.33
2018-12-01T16:30:55.622Z,8.70
2018-12-01T16:33:26.064Z,9.93
2018-12-01T16:35:55.435Z,12.07
2018-12-01T16:38:28.556Z,15.57
2018-12-01T16:41:01.623Z,18.30
2018-12-01T16:43:34.378Z,12.63
2018-12-01T16:46:04.285Z,14.90
2018-12-01T16:48:33.765Z,13.33
2018-12-01T16:51:03.190Z,19.43
2018-12-01T16:53:32.565Z,13.77
2018-12-01T16:56:02.005Z,10.73
2018-12-01T16:58:31.417Z,15.47
2018-12-01T17:01:00.805Z,13.90
2018-12-01T17:03:30.217Z,13.50
2018-12-01T17:06:02.512Z,15.90
2018-12-01T17:08:31.905Z,13.30
2018-12-01T17:11:01.414Z,22.57
2018-12-01T17:13:30.876Z,13.10
2018-12-01T17:16:00.416Z,15.47
2018-12-01T17:18:29.833Z,14.40
2018-12-01T17:20:59.255Z,15.27
2018-12-01T17:23:28.737Z,13.50
2018-12-01T17:25:58.146Z,17.47
2018-12-01T17:28:27.558Z,15.40
2018-12-01T17:30:56.987Z,16.40
2018-12-01T17:33:26.641Z,22.67
2018-12-01T17:35:56.089Z,8.97
2018-12-01T17:38:25.488Z,13.17
2018-12-01T17:41:11.470Z,19.10
2018-12-01T17:43:48.954Z,18.13
2018-12-01T17:46:18.401Z,24.10
2018-12-01T17:48:47.885Z,18.83
2018-12-01T17:51:17.282Z,26.40
2018-12-01T17:53:49.815Z,19.37
2018-12-01T17:56:19.257Z,18.70
2018-12-01T17:58:49.006Z,26.77
2018-12-01T18:01:18.743Z,24.07
2018-12-01T18:03:48.544Z,17.20
2018-12-01T18:06:18.311Z,13.57
2018-12-01T18:08:47.749Z,26.97
2018-12-01T18:11:17.684Z,24.90
2018-12-01T18:13:47.117Z,26.50
2018-12-01T18:16:16.495Z,23.63
2018-12-01T18:18:45.979Z,30.43
2018-12-01T18:21:15.438Z,31.60
2018-12-01T18:23:44.852Z,35.27
2018-12-01T18:26:14.226Z,29.60
2018-12-01T18:28:50.302Z,35.40
2018-12-01T18:31:23.495Z,19.87
2018-12-01T18:34:11.012Z,20.43
2018-12-01T18:36:40.421Z,24.93
2018-12-01T18:39:15.557Z,27.97
2018-12-01T18:41:45.026Z,21.53
2018-12-01T18:44:14.405Z,43.10
2018-12-01T18:46:43.882Z,30.00
2018-12-01T18:49:13.417Z,24.87
2018-12-01T18:51:42.888Z,19.90
2018-12-01T18:54:12.309Z,33.97
2018-12-01T18:56:48.415Z,19.30
2018-12-01T18:59:18.133Z,19.00
2018-12-01T19:01:51.263Z,17.20
2018-12-01T19:04:21.082Z,18.98
2018-12-01T19:06:50.845Z,21.67
2018-12-01T19:09:20.269Z,17.77
2018-12-01T19:11:49.640Z,22.20
2018-12-01T19:14:19.042Z,16.47
2018-12-01T19:16:48.438Z,17.47
2018-12-01T19:19:17.853Z,15.97
2018-12-01T19:21:47.233Z,16.53
2018-12-01T19:24:16.625Z,26.12
2018-12-01T19:26:46.016Z,21.67
2018-12-01T19:29:15.436Z,15.40
2018-12-01T19:31:44.822Z,15.17
2018-12-01T19:34:14.249Z,34.17
2018-12-01T19:36:43.720Z,13.97
2018-12-01T19:39:13.104Z,14.50
2018-12-01T19:41:42.529Z,13.37
2018-12-01T19:44:11.926Z,34.20
2018-12-01T19:46:41.309Z,13.73
2018-12-01T19:49:10.746Z,16.05
2018-12-01T19:51:40.135Z,15.77
2018-12-01T19:54:09.546Z,29.97
2018-12-01T19:56:38.943Z,16.83
2018-12-01T19:59:08.370Z,18.60
2018-12-01T20:01:37.785Z,20.33
2018-12-01T20:04:07.429Z,26.27
2018-12-01T20:06:36.865Z,27.20
2018-12-01T20:09:08.449Z,12.50
2018-12-01T20:11:37.851Z,17.80
2018-12-01T20:14:11.493Z,22.10
2018-12-01T20:16:43.772Z,10.90
2018-12-01T20:19:13.522Z,13.43
2018-12-01T20:21:43.413Z,14.17
2018-12-01T20:24:12.831Z,27.73
2018-12-01T20:26:43.336Z,15.13
2018-12-01T20:29:12.793Z,16.00
2018-12-01T20:31:42.190Z,10.00
2018-12-01T20:34:11.721Z,28.23
2018-12-01T20:36:49.669Z,13.33
2018-12-01T20:39:25.792Z,15.20
2018-12-01T20:41:55.248Z,16.53
2018-12-01T20:44:24.642Z,12.57
2018-12-01T20:46:54.080Z,12.27
2018-12-01T20:49:23.489Z,14.60
2018-12-01T20:51:52.877Z,12.30
2018-12-01T20:54:37.805Z,9.27
2018-12-01T20:57:16.097Z,13.97
2018-12-01T20:59:45.504Z,9.37
2018-12-01T21:02:14.985Z,11.50
2018-12-01T21:04:44.445Z,16.10
2018-12-01T21:07:13.857Z,12.80
2018-12-01T21:09:43.237Z,13.50
2018-12-01T21:12:14.247Z,11.43
2018-12-01T21:14:43.630Z,9.50
2018-12-01T21:17:13.065Z,16.97
2018-12-01T21:19:42.453Z,9.37
2018-12-01T21:22:11.861Z,14.20
2018-12-01T21:24:41.290Z,11.93
2018-12-01T21:27:10.676Z,13.43
2018-12-01T21:29:40.085Z,12.77
2018-12-01T21:32:09.584Z,13.70
2018-12-01T21:34:39.249Z,9.73
2018-12-01T21:37:08.714Z,11.87
2018-12-01T21:39:38.105Z,14.20
2018-12-01T21:42:07.765Z,13.20
2018-12-01T21:44:37.227Z,14.20
2018-12-01T21:47:07.270Z,15.80
2018-12-01T21:49:36.754Z,16.07
2018-12-01T21:52:06.605Z,14.33
2018-12-01T21:54:36.031Z,26.25
2018-12-01T21:57:05.439Z,18.37
2018-12-01T21:59:34.913Z,27.93
2018-12-01T22:02:04.565Z,16.87
2018-12-01T22:04:34.081Z,15.67
2018-12-01T22:07:03.453Z,16.93
2018-12-01T22:09:32.889Z,21.40
2018-12-01T22:12:02.312Z,18.50
2018-12-01T22:14:31.677Z,19.30
2018-12-01T22:17:01.150Z,20.27
2018-12-01T22:19:30.533Z,15.00
2018-12-01T22:22:01.948Z,21.13
2018-12-01T22:24:31.339Z,23.70
2018-12-01T22:27:00.820Z,26.17
2018-12-01T22:29:30.213Z,25.80
2018-12-01T22:31:59.691Z,15.90
2018-12-01T22:34:29.070Z,16.47
2018-12-01T22:36:58.498Z,14.57
2018-12-01T22:39:27.925Z,22.33
2018-12-01T22:41:57.293Z,15.20
2018-12-01T22:44:26.688Z,21.10
2018-12-01T22:46:56.064Z,19.23
2018-12-01T22:49:25.469Z,22.00
2018-12-01T22:51:54.862Z,26.40
2018-12-01T22:54:24.241Z,22.22
2018-12-01T22:56:53.633Z,22.73
2018-12-01T22:59:23.001Z,15.67
2018-12-01T23:01:52.481Z,30.13
2018-12-01T23:04:21.908Z,16.03
2018-12-01T23:06:51.329Z,19.40
2018-12-01T23:09:20.761Z,19.73
2018-12-01T23:11:50.220Z,18.37
2018-12-01T23:14:19.596Z,24.40
2018-12-01T23:16:48.993Z,20.43
2018-12-01T23:19:18.384Z,14.97
2018-12-01T23:21:47.800Z,19.00
2018-12-01T23:24:17.221Z,18.60
2018-12-01T23:26:46.630Z,28.10
2018-12-01T23:29:16.017Z,15.87
2018-12-01T23:31:45.474Z,17.20
2018-12-01T23:34:14.901Z,25.63
2018-12-01T23:36:44.309Z,23.37
2018-12-01T23:39:13.696Z,18.90
2018-12-01T23:41:43.083Z,17.37
2018-12-01T23:44:20.341Z,29.10
2018-12-01T23:46:49.717Z,20.40
2018-12-01T23:49:19.119Z,32.77
2018-12-01T23:51:48.540Z,16.37
2018-12-01T23:54:17.933Z,23.90
2018-12-01T23:56:47.348Z,19.10
2018-12-01T23:59:16.748Z,16.90
